sensor_id;sensor_type;location;lat;lon;timestamp;P1;durP1;ratioP1;P2;durP2;ratioP2
4700;SDS011;8724;51.272;6.554;2023-11-21T00:00:21;8.00;;;5.60;;
4700;SDS011;8724;51.272;6.554;2023-11-21T00:02:49;7.40;;;5.90;;
4700;SDS011;8724;51.272;6.554;2023-11-21T00:05:17;9.40;;;5.60;;
4700;SDS011;8724;51.272;6.554;2023-11-21T00:07:45;9.67;;;5.67;;
4700;SDS011;8724;51.272;6.554;2023-11-21T00:10:14;12.40;;;6.20;;
4700;SDS011;8724;51.272;6.554;2023-11-21T00:12:43;11.23;;;6.50;;
4700;SDS011;8724;51.272;6.554;2023-11-21T00:15:14;9.23;;;5.37;;
4700;SDS011;8724;51.272;6.554;2023-11-21T00:17:42;6.67;;;5.77;;
4700;SDS011;8724;51.272;6.554;2023-11-21T00:20:10;6.40;;;5.73;;
4700;SDS011;8724;51.272;6.554;2023-11-21T00:22:40;7.73;;;5.80;;
4700;SDS011;8724;51.272;6.554;2023-11-21T00:25:09;8.17;;;6.40;;
4700;SDS011;8724;51.272;6.554;2023-11-21T00:27:39;7.10;;;5.53;;
4700;SDS011;8724;51.272;6.554;2023-11-21T00:30:08;9.80;;;6.90;;
4700;SDS011;8724;51.272;6.554;2023-11-21T00:32:37;8.10;;;5.50;;
4700;SDS011;8724;51.272;6.554;2023-11-21T00:35:06;6.63;;;5.87;;
4700;SDS011;8724;51.272;6.554;2023-11-21T00:37:34;10.17;;;6.20;;
4700;SDS011;8724;51.272;6.554;2023-11-21T00:40:05;8.33;;;5.80;;
4700;SDS011;8724;51.272;6.554;2023-11-21T00:42:34;10.67;;;6.30;;
4700;SDS011;8724;51.272;6.554;2023-11-21T00:45:04;8.63;;;5.77;;
4700;SDS011;8724;51.272;6.554;2023-11-21T00:47:33;7.83;;;6.10;;
4700;SDS011;8724;51.272;6.554;2023-11-21T00:50:01;8.43;;;5.60;;
4700;SDS011;8724;51.272;6.554;2023-11-21T00:52:32;10.47;;;6.37;;
4700;SDS011;8724;51.272;6.554;2023-11-21T00:55:00;10.70;;;5.90;;
4700;SDS011;8724;51.272;6.554;2023-11-21T00:57:30;9.63;;;6.50;;
4700;SDS011;8724;51.272;6.554;2023-11-21T00:59:58;5.90;;;5.27;;
4700;SDS011;8724;51.272;6.554;2023-11-21T01:02:27;6.57;;;5.07;;
4700;SDS011;8724;51.272;6.554;2023-11-21T01:04:55;9.30;;;5.90;;
4700;SDS011;8724;51.272;6.554;2023-11-21T01:07:23;6.80;;;5.87;;
4700;SDS011;8724;51.272;6.554;2023-11-21T01:09:52;9.40;;;6.00;;
4700;SDS011;8724;51.272;6.554;2023-11-21T01:12:20;6.30;;;5.50;;
4700;SDS011;8724;51.272;6.554;2023-11-21T01:14:51;7.90;;;6.30;;
4700;SDS011;8724;51.272;6.554;2023-11-21T01:17:20;8.27;;;6.70;;
4700;SDS011;8724;51.272;6.554;2023-11-21T01:19:52;7.27;;;5.60;;
4700;SDS011;8724;51.272;6.554;2023-11-21T01:22:21;9.07;;;5.60;;
4700;SDS011;8724;51.272;6.554;2023-11-21T01:24:53;9.17;;;7.30;;
4700;SDS011;8724;51.272;6.554;2023-11-21T01:27:21;7.40;;;5.93;;
4700;SDS011;8724;51.272;6.554;2023-11-21T01:29:49;7.50;;;5.37;;
4700;SDS011;8724;51.272;6.554;2023-11-21T01:32:21;6.83;;;5.50;;
4700;SDS011;8724;51.272;6.554;2023-11-21T01:34:50;5.53;;;5.03;;
4700;SDS011;8724;51.272;6.554;2023-11-21T01:37:19;8.23;;;6.37;;
4700;SDS011;8724;51.272;6.554;2023-11-21T01:39:48;7.60;;;6.33;;
4700;SDS011;8724;51.272;6.554;2023-11-21T01:42:16;12.40;;;7.07;;
4700;SDS011;8724;51.272;6.554;2023-11-21T01:44:44;9.47;;;6.20;;
4700;SDS011;8724;51.272;6.554;2023-11-21T01:47:13;7.87;;;5.60;;
4700;SDS011;8724;51.272;6.554;2023-11-21T01:49:43;10.40;;;6.30;;
4700;SDS011;8724;51.272;6.554;2023-11-21T01:52:13;6.33;;;5.73;;
4700;SDS011;8724;51.272;6.554;2023-11-21T01:54:41;6.47;;;4.80;;
4700;SDS011;8724;51.272;6.554;2023-11-21T01:57:10;8.00;;;5.90;;
4700;SDS011;8724;51.272;6.554;2023-11-21T01:59:38;6.17;;;5.37;;
4700;SDS011;8724;51.272;6.554;2023-11-21T02:02:08;9.87;;;6.30;;
4700;SDS011;8724;51.272;6.554;2023-11-21T02:04:37;8.53;;;6.10;;
4700;SDS011;8724;51.272;6.554;2023-11-21T02:07:06;7.73;;;6.20;;
4700;SDS011;8724;51.272;6.554;2023-11-21T02:09:35;6.83;;;6.03;;
4700;SDS011;8724;51.272;6.554;2023-11-21T02:12:05;7.80;;;6.00;;
4700;SDS011;8724;51.272;6.554;2023-11-21T02:14:35;6.23;;;5.60;;
4700;SDS011;8724;51.272;6.554;2023-11-21T02:17:03;7.60;;;5.33;;
4700;SDS011;8724;51.272;6.554;2023-11-21T02:19:31;6.90;;;6.20;;
4700;SDS011;8724;51.272;6.554;2023-11-21T02:22:00;6.27;;;5.67;;
4700;SDS011;8724;51.272;6.554;2023-11-21T02:24:34;6.03;;;5.53;;
4700;SDS011;8724;51.272;6.554;2023-11-21T02:27:03;8.60;;;6.70;;
4700;SDS011;8724;51.272;6.554;2023-11-21T02:29:32;10.00;;;5.70;;
4700;SDS011;8724;51.272;6.554;2023-11-21T02:32:00;6.53;;;5.50;;
4700;SDS011;8724;51.272;6.554;2023-11-21T02:34:30;7.27;;;6.07;;
4700;SDS011;8724;51.272;6.554;2023-11-21T02:36:58;9.70;;;6.50;;
4700;SDS011;8724;51.272;6.554;2023-11-21T02:39:26;7.20;;;6.30;;
4700;SDS011;8724;51.272;6.554;2023-11-21T02:41:56;8.50;;;7.27;;
4700;SDS011;8724;51.272;6.554;2023-11-21T02:44:24;9.47;;;8.23;;
4700;SDS011;8724;51.272;6.554;2023-11-21T02:46:52;10.03;;;7.73;;
4700;SDS011;8724;51.272;6.554;2023-11-21T02:49:21;10.40;;;7.53;;
4700;SDS011;8724;51.272;6.554;2023-11-21T02:51:49;11.10;;;8.23;;
4700;SDS011;8724;51.272;6.554;2023-11-21T02:54:17;10.93;;;8.07;;
4700;SDS011;8724;51.272;6.554;2023-11-21T02:56:48;9.50;;;7.20;;
4700;SDS011;8724;51.272;6.554;2023-11-21T02:59:18;8.00;;;6.90;;
4700;SDS011;8724;51.272;6.554;2023-11-21T03:01:46;8.50;;;7.13;;
4700;SDS011;8724;51.272;6.554;2023-11-21T03:04:16;12.30;;;8.73;;
4700;SDS011;8724;51.272;6.554;2023-11-21T03:06:44;13.00;;;8.90;;
4700;SDS011;8724;51.272;6.554;2023-11-21T03:09:13;9.63;;;7.93;;
4700;SDS011;8724;51.272;6.554;2023-11-21T03:11:41;10.07;;;8.40;;
4700;SDS011;8724;51.272;6.554;2023-11-21T03:14:09;11.57;;;7.53;;
4700;SDS011;8724;51.272;6.554;2023-11-21T03:16:39;11.77;;;7.70;;
4700;SDS011;8724;51.272;6.554;2023-11-21T03:19:08;10.20;;;8.23;;
4700;SDS011;8724;51.272;6.554;2023-11-21T03:21:36;7.83;;;7.03;;
4700;SDS011;8724;51.272;6.554;2023-11-21T03:24:05;9.70;;;8.70;;
4700;SDS011;8724;51.272;6.554;2023-11-21T03:26:33;12.20;;;9.13;;
4700;SDS011;8724;51.272;6.554;2023-11-21T03:29:03;12.57;;;9.20;;
4700;SDS011;8724;51.272;6.554;2023-11-21T03:31:32;12.27;;;10.80;;
4700;SDS011;8724;51.272;6.554;2023-11-21T03:34:01;18.07;;;10.80;;
4700;SDS011;8724;51.272;6.554;2023-11-21T03:36:30;11.90;;;8.80;;
4700;SDS011;8724;51.272;6.554;2023-11-21T03:38:58;11.67;;;8.70;;
4700;SDS011;8724;51.272;6.554;2023-11-21T03:41:26;12.43;;;10.50;;
4700;SDS011;8724;51.272;6.554;2023-11-21T03:43:55;12.43;;;9.60;;
4700;SDS011;8724;51.272;6.554;2023-11-21T03:46:23;12.57;;;10.17;;
4700;SDS011;8724;51.272;6.554;2023-11-21T03:48:51;14.90;;;8.90;;
4700;SDS011;8724;51.272;6.554;2023-11-21T03:51:22;10.80;;;8.70;;
4700;SDS011;8724;51.272;6.554;2023-11-21T03:53:50;9.70;;;8.67;;
4700;SDS011;8724;51.272;6.554;2023-11-21T03:56:18;14.47;;;9.50;;
4700;SDS011;8724;51.272;6.554;2023-11-21T03:58:48;14.37;;;10.27;;
4700;SDS011;8724;51.272;6.554;2023-11-21T04:01:20;13.50;;;8.70;;
4700;SDS011;8724;51.272;6.554;2023-11-21T04:03:49;12.93;;;8.80;;
4700;SDS011;8724;51.272;6.554;2023-11-21T04:06:18;8.20;;;6.50;;
4700;SDS011;8724;51.272;6.554;2023-11-21T04:08:48;11.43;;;7.83;;
4700;SDS011;8724;51.272;6.554;2023-11-21T04:11:16;9.77;;;7.50;;
4700;SDS011;8724;51.272;6.554;2023-11-21T04:13:44;7.80;;;7.00;;
4700;SDS011;8724;51.272;6.554;2023-11-21T04:16:13;10.30;;;7.73;;
4700;SDS011;8724;51.272;6.554;2023-11-21T04:18:41;9.00;;;6.80;;
4700;SDS011;8724;51.272;6.554;2023-11-21T04:21:09;8.10;;;7.30;;
4700;SDS011;8724;51.272;6.554;2023-11-21T04:23:37;11.60;;;8.60;;
4700;SDS011;8724;51.272;6.554;2023-11-21T04:26:07;9.47;;;8.27;;
4700;SDS011;8724;51.272;6.554;2023-11-21T04:28:35;11.37;;;8.90;;
4700;SDS011;8724;51.272;6.554;2023-11-21T04:31:03;11.87;;;8.00;;
4700;SDS011;8724;51.272;6.554;2023-11-21T04:33:33;12.60;;;8.70;;
4700;SDS011;8724;51.272;6.554;2023-11-21T04:36:01;10.33;;;8.90;;
4700;SDS011;8724;51.272;6.554;2023-11-21T04:38:30;10.83;;;8.83;;
4700;SDS011;8724;51.272;6.554;2023-11-21T04:40:59;10.70;;;9.10;;
4700;SDS011;8724;51.272;6.554;2023-11-21T04:43:30;10.67;;;9.27;;
4700;SDS011;8724;51.272;6.554;2023-11-21T04:45:58;14.73;;;10.93;;
4700;SDS011;8724;51.272;6.554;2023-11-21T04:48:27;13.73;;;10.00;;
4700;SDS011;8724;51.272;6.554;2023-11-21T04:50:55;14.03;;;9.90;;
4700;SDS011;8724;51.272;6.554;2023-11-21T04:53:23;12.50;;;10.60;;
4700;SDS011;8724;51.272;6.554;2023-11-21T04:55:51;12.87;;;10.90;;
4700;SDS011;8724;51.272;6.554;2023-11-21T04:58:20;12.87;;;10.83;;
4700;SDS011;8724;51.272;6.554;2023-11-21T05:00:49;14.90;;;12.40;;
4700;SDS011;8724;51.272;6.554;2023-11-21T05:03:18;18.57;;;12.30;;
4700;SDS011;8724;51.272;6.554;2023-11-21T05:05:47;16.47;;;12.27;;
4700;SDS011;8724;51.272;6.554;2023-11-21T05:08:15;12.70;;;11.40;;
4700;SDS011;8724;51.272;6.554;2023-11-21T05:10:43;12.47;;;9.07;;
4700;SDS011;8724;51.272;6.554;2023-11-21T05:13:12;12.83;;;9.73;;
4700;SDS011;8724;51.272;6.554;2023-11-21T05:15:42;10.77;;;9.60;;
4700;SDS011;8724;51.272;6.554;2023-11-21T05:18:11;16.30;;;10.30;;
4700;SDS011;8724;51.272;6.554;2023-11-21T05:20:40;11.70;;;9.30;;
4700;SDS011;8724;51.272;6.554;2023-11-21T05:23:08;10.87;;;9.27;;
4700;SDS011;8724;51.272;6.554;2023-11-21T05:25:37;14.30;;;11.70;;
4700;SDS011;8724;51.272;6.554;2023-11-21T05:28:06;17.60;;;11.93;;
4700;SDS011;8724;51.272;6.554;2023-11-21T05:30:34;17.93;;;12.00;;
4700;SDS011;8724;51.272;6.554;2023-11-21T05:33:02;11.53;;;10.23;;
4700;SDS011;8724;51.272;6.554;2023-11-21T05:35:32;12.87;;;10.83;;
4700;SDS011;8724;51.272;6.554;2023-11-21T05:38:00;12.93;;;10.70;;
4700;SDS011;8724;51.272;6.554;2023-11-21T05:40:28;14.83;;;11.63;;
4700;SDS011;8724;51.272;6.554;2023-11-21T05:42:57;11.70;;;9.60;;
4700;SDS011;8724;51.272;6.554;2023-11-21T05:45:25;13.73;;;10.53;;
4700;SDS011;8724;51.272;6.554;2023-11-21T05:47:55;13.57;;;11.30;;
4700;SDS011;8724;51.272;6.554;2023-11-21T05:50:23;17.90;;;12.90;;
4700;SDS011;8724;51.272;6.554;2023-11-21T05:52:53;20.57;;;14.20;;
4700;SDS011;8724;51.272;6.554;2023-11-21T05:55:22;25.07;;;15.90;;
4700;SDS011;8724;51.272;6.554;2023-11-21T05:57:52;24.10;;;16.30;;
4700;SDS011;8724;51.272;6.554;2023-11-21T06:00:20;22.93;;;15.10;;
4700;SDS011;8724;51.272;6.554;2023-11-21T06:02:49;34.17;;;17.50;;
4700;SDS011;8724;51.272;6.554;2023-11-21T06:05:19;27.63;;;15.50;;
4700;SDS011;8724;51.272;6.554;2023-11-21T06:07:50;25.60;;;16.13;;
4700;SDS011;8724;51.272;6.554;2023-11-21T06:10:21;32.57;;;18.20;;
4700;SDS011;8724;51.272;6.554;2023-11-21T06:12:50;25.77;;;17.10;;
4700;SDS011;8724;51.272;6.554;2023-11-21T06:15:19;21.80;;;14.53;;
4700;SDS011;8724;51.272;6.554;2023-11-21T06:17:49;26.73;;;16.73;;
4700;SDS011;8724;51.272;6.554;2023-11-21T06:20:19;19.10;;;13.87;;
4700;SDS011;8724;51.272;6.554;2023-11-21T06:22:49;22.87;;;14.37;;
4700;SDS011;8724;51.272;6.554;2023-11-21T06:25:18;19.50;;;14.47;;
4700;SDS011;8724;51.272;6.554;2023-11-21T06:27:48;17.50;;;13.93;;
4700;SDS011;8724;51.272;6.554;2023-11-21T06:30:20;24.60;;;13.07;;
4700;SDS011;8724;51.272;6.554;2023-11-21T06:32:50;15.13;;;12.17;;
4700;SDS011;8724;51.272;6.554;2023-11-21T06:35:20;14.70;;;12.20;;
4700;SDS011;8724;51.272;6.554;2023-11-21T06:37:49;23.50;;;13.40;;
4700;SDS011;8724;51.272;6.554;2023-11-21T06:40:18;22.50;;;15.10;;
4700;SDS011;8724;51.272;6.554;2023-11-21T06:42:49;21.60;;;15.77;;
4700;SDS011;8724;51.272;6.554;2023-11-21T06:45:18;18.60;;;14.13;;
4700;SDS011;8724;51.272;6.554;2023-11-21T06:47:47;18.40;;;14.20;;
4700;SDS011;8724;51.272;6.554;2023-11-21T06:50:17;17.80;;;14.43;;
4700;SDS011;8724;51.272;6.554;2023-11-21T06:52:45;21.07;;;16.20;;
4700;SDS011;8724;51.272;6.554;2023-11-21T06:55:13;21.17;;;14.37;;
4700;SDS011;8724;51.272;6.554;2023-11-21T06:57:42;21.20;;;15.70;;
4700;SDS011;8724;51.272;6.554;2023-11-21T07:00:13;23.77;;;15.20;;
4700;SDS011;8724;51.272;6.554;2023-11-21T07:02:44;19.10;;;14.93;;
4700;SDS011;8724;51.272;6.554;2023-11-21T07:05:12;24.70;;;17.03;;
4700;SDS011;8724;51.272;6.554;2023-11-21T07:07:42;24.70;;;18.10;;
4700;SDS011;8724;51.272;6.554;2023-11-21T07:10:10;20.33;;;16.50;;
4700;SDS011;8724;51.272;6.554;2023-11-21T07:12:39;29.50;;;16.73;;
4700;SDS011;8724;51.272;6.554;2023-11-21T07:15:07;28.20;;;19.47;;
4700;SDS011;8724;51.272;6.554;2023-11-21T07:17:38;33.33;;;22.00;;
4700;SDS011;8724;51.272;6.554;2023-11-21T07:20:07;29.77;;;20.47;;
4700;SDS011;8724;51.272;6.554;2023-11-21T07:22:37;32.70;;;20.97;;
4700;SDS011;8724;51.272;6.554;2023-11-21T07:25:05;27.53;;;18.20;;
4700;SDS011;8724;51.272;6.554;2023-11-21T07:27:35;32.13;;;20.27;;
4700;SDS011;8724;51.272;6.554;2023-11-21T07:30:04;26.43;;;19.43;;
4700;SDS011;8724;51.272;6.554;2023-11-21T07:32:34;30.70;;;19.40;;
4700;SDS011;8724;51.272;6.554;2023-11-21T07:35:05;32.60;;;20.13;;
4700;SDS011;8724;51.272;6.554;2023-11-21T07:37:35;26.60;;;18.87;;
4700;SDS011;8724;51.272;6.554;2023-11-21T07:40:03;25.03;;;18.07;;
4700;SDS011;8724;51.272;6.554;2023-11-21T07:42:35;27.77;;;19.47;;
4700;SDS011;8724;51.272;6.554;2023-11-21T07:45:04;32.40;;;21.23;;
4700;SDS011;8724;51.272;6.554;2023-11-21T07:47:33;34.17;;;19.80;;
4700;SDS011;8724;51.272;6.554;2023-11-21T07:50:02;27.50;;;17.50;;
4700;SDS011;8724;51.272;6.554;2023-11-21T07:52:32;27.17;;;19.47;;
4700;SDS011;8724;51.272;6.554;2023-11-21T07:55:00;30.27;;;19.23;;
4700;SDS011;8724;51.272;6.554;2023-11-21T07:57:28;26.10;;;16.70;;
4700;SDS011;8724;51.272;6.554;2023-11-21T07:59:57;26.97;;;18.90;;
4700;SDS011;8724;51.272;6.554;2023-11-21T08:02:25;28.97;;;18.00;;
4700;SDS011;8724;51.272;6.554;2023-11-21T08:04:54;28.30;;;19.00;;
4700;SDS011;8724;51.272;6.554;2023-11-21T08:07:23;28.83;;;18.10;;
4700;SDS011;8724;51.272;6.554;2023-11-21T08:09:53;27.97;;;18.30;;
4700;SDS011;8724;51.272;6.554;2023-11-21T08:12:23;29.97;;;18.07;;
4700;SDS011;8724;51.272;6.554;2023-11-21T08:14:54;39.60;;;23.20;;
4700;SDS011;8724;51.272;6.554;2023-11-21T08:17:22;41.73;;;24.30;;
4700;SDS011;8724;51.272;6.554;2023-11-21T08:19:50;35.60;;;21.50;;
4700;SDS011;8724;51.272;6.554;2023-11-21T08:22:19;43.00;;;26.30;;
4700;SDS011;8724;51.272;6.554;2023-11-21T08:24:47;40.40;;;23.93;;
4700;SDS011;8724;51.272;6.554;2023-11-21T08:27:16;39.63;;;24.47;;
4700;SDS011;8724;51.272;6.554;2023-11-21T08:29:44;34.87;;;21.80;;
4700;SDS011;8724;51.272;6.554;2023-11-21T08:32:12;34.43;;;20.40;;
4700;SDS011;8724;51.272;6.554;2023-11-21T08:34:41;33.23;;;21.33;;
4700;SDS011;8724;51.272;6.554;2023-11-21T08:37:11;34.70;;;22.60;;
4700;SDS011;8724;51.272;6.554;2023-11-21T08:39:41;34.23;;;20.53;;
4700;SDS011;8724;51.272;6.554;2023-11-21T08:42:10;31.87;;;19.83;;
4700;SDS011;8724;51.272;6.554;2023-11-21T08:44:40;26.60;;;19.23;;
4700;SDS011;8724;51.272;6.554;2023-11-21T08:47:09;31.00;;;20.47;;
4700;SDS011;8724;51.272;6.554;2023-11-21T08:49:37;25.73;;;17.33;;
4700;SDS011;8724;51.272;6.554;2023-11-21T08:52:05;22.43;;;17.77;;
4700;SDS011;8724;51.272;6.554;2023-11-21T08:54:33;31.57;;;21.00;;
4700;SDS011;8724;51.272;6.554;2023-11-21T08:57:02;28.13;;;20.10;;
4700;SDS011;8724;51.272;6.554;2023-11-21T08:59:31;28.07;;;18.40;;
4700;SDS011;8724;51.272;6.554;2023-11-21T09:02:01;27.50;;;18.03;;
4700;SDS011;8724;51.272;6.554;2023-11-21T09:04:29;23.30;;;18.70;;
4700;SDS011;8724;51.272;6.554;2023-11-21T09:06:57;25.03;;;17.97;;
4700;SDS011;8724;51.272;6.554;2023-11-21T09:09:26;22.50;;;16.53;;
4700;SDS011;8724;51.272;6.554;2023-11-21T09:11:56;24.13;;;17.23;;
4700;SDS011;8724;51.272;6.554;2023-11-21T09:14:27;24.20;;;17.70;;
4700;SDS011;8724;51.272;6.554;2023-11-21T09:16:55;23.57;;;16.80;;
4700;SDS011;8724;51.272;6.554;2023-11-21T09:19:25;24.17;;;16.03;;
4700;SDS011;8724;51.272;6.554;2023-11-21T09:21:53;22.20;;;16.20;;
4700;SDS011;8724;51.272;6.554;2023-11-21T09:24:23;20.40;;;15.00;;
4700;SDS011;8724;51.272;6.554;2023-11-21T09:26:52;20.40;;;14.77;;
4700;SDS011;8724;51.272;6.554;2023-11-21T09:29:20;20.27;;;13.20;;
4700;SDS011;8724;51.272;6.554;2023-11-21T09:31:49;29.93;;;16.97;;
4700;SDS011;8724;51.272;6.554;2023-11-21T09:34:17;25.73;;;18.40;;
4700;SDS011;8724;51.272;6.554;2023-11-21T09:36:47;21.97;;;15.50;;
4700;SDS011;8724;51.272;6.554;2023-11-21T09:39:16;22.60;;;15.70;;
4700;SDS011;8724;51.272;6.554;2023-11-21T09:41:46;21.47;;;16.80;;
4700;SDS011;8724;51.272;6.554;2023-11-21T09:44:18;24.50;;;17.57;;
4700;SDS011;8724;51.272;6.554;2023-11-21T09:46:50;19.50;;;15.17;;
4700;SDS011;8724;51.272;6.554;2023-11-21T09:49:21;23.03;;;17.10;;
4700;SDS011;8724;51.272;6.554;2023-11-21T09:51:54;25.63;;;17.07;;
4700;SDS011;8724;51.272;6.554;2023-11-21T09:54:23;21.43;;;16.00;;
4700;SDS011;8724;51.272;6.554;2023-11-21T09:56:53;21.57;;;15.83;;
4700;SDS011;8724;51.272;6.554;2023-11-21T09:59:22;16.67;;;14.43;;
4700;SDS011;8724;51.272;6.554;2023-11-21T10:01:50;17.57;;;15.03;;
4700;SDS011;8724;51.272;6.554;2023-11-21T10:04:18;27.53;;;17.90;;
4700;SDS011;8724;51.272;6.554;2023-11-21T10:06:47;18.10;;;14.63;;
4700;SDS011;8724;51.272;6.554;2023-11-21T10:09:17;21.63;;;14.80;;
4700;SDS011;8724;51.272;6.554;2023-11-21T10:11:47;14.53;;;12.80;;
4700;SDS011;8724;51.272;6.554;2023-11-21T10:14:18;16.30;;;13.00;;
4700;SDS011;8724;51.272;6.554;2023-11-21T10:16:52;16.90;;;13.57;;
4700;SDS011;8724;51.272;6.554;2023-11-21T10:19:21;18.27;;;14.20;;
4700;SDS011;8724;51.272;6.554;2023-11-21T10:21:50;18.47;;;12.60;;
4700;SDS011;8724;51.272;6.554;2023-11-21T10:24:20;16.80;;;13.97;;
4700;SDS011;8724;51.272;6.554;2023-11-21T10:26:48;22.03;;;16.10;;
4700;SDS011;8724;51.272;6.554;2023-11-21T10:29:19;20.90;;;17.03;;
4700;SDS011;8724;51.272;6.554;2023-11-21T10:31:49;19.87;;;14.83;;
4700;SDS011;8724;51.272;6.554;2023-11-21T10:34:18;18.90;;;13.17;;
4700;SDS011;8724;51.272;6.554;2023-11-21T10:36:47;16.93;;;13.00;;
4700;SDS011;8724;51.272;6.554;2023-11-21T10:39:16;20.30;;;14.40;;
4700;SDS011;8724;51.272;6.554;2023-11-21T10:41:47;17.70;;;13.30;;
4700;SDS011;8724;51.272;6.554;2023-11-21T10:44:16;17.53;;;14.40;;
4700;SDS011;8724;51.272;6.554;2023-11-21T10:46:48;22.13;;;16.67;;
4700;SDS011;8724;51.272;6.554;2023-11-21T10:49:20;26.00;;;17.03;;
4700;SDS011;8724;51.272;6.554;2023-11-21T10:51:51;19.40;;;14.20;;
4700;SDS011;8724;51.272;6.554;2023-11-21T10:54:20;18.10;;;13.30;;
4700;SDS011;8724;51.272;6.554;2023-11-21T10:56:51;19.20;;;14.20;;
4700;SDS011;8724;51.272;6.554;2023-11-21T10:59:23;14.47;;;12.30;;
4700;SDS011;8724;51.272;6.554;2023-11-21T11:01:52;18.57;;;14.00;;
4700;SDS011;8724;51.272;6.554;2023-11-21T11:04:22;16.10;;;12.77;;
4700;SDS011;8724;51.272;6.554;2023-11-21T11:06:54;19.60;;;14.87;;
4700;SDS011;8724;51.272;6.554;2023-11-21T11:09:24;20.10;;;13.10;;
4700;SDS011;8724;51.272;6.554;2023-11-21T11:11:54;13.70;;;10.80;;
4700;SDS011;8724;51.272;6.554;2023-11-21T11:14:22;17.30;;;12.83;;
4700;SDS011;8724;51.272;6.554;2023-11-21T11:16:53;18.47;;;12.80;;
4700;SDS011;8724;51.272;6.554;2023-11-21T11:19:23;22.00;;;13.87;;
4700;SDS011;8724;51.272;6.554;2023-11-21T11:21:56;20.43;;;14.73;;
4700;SDS011;8724;51.272;6.554;2023-11-21T11:24:40;25.60;;;16.73;;
4700;SDS011;8724;51.272;6.554;2023-11-21T11:27:18;20.63;;;15.17;;
4700;SDS011;8724;51.272;6.554;2023-11-21T11:29:56;19.00;;;14.50;;
4700;SDS011;8724;51.272;6.554;2023-11-21T11:32:36;22.30;;;16.30;;
4700;SDS011;8724;51.272;6.554;2023-11-21T11:35:12;22.00;;;15.07;;
4700;SDS011;8724;51.272;6.554;2023-11-21T11:37:47;15.47;;;11.50;;
4700;SDS011;8724;51.272;6.554;2023-11-21T11:40:15;16.37;;;12.93;;
4700;SDS011;8724;51.272;6.554;2023-11-21T11:42:56;14.17;;;10.40;;
4700;SDS011;8724;51.272;6.554;2023-11-21T11:45:26;16.67;;;10.43;;
4700;SDS011;8724;51.272;6.554;2023-11-21T11:48:00;16.83;;;13.30;;
4700;SDS011;8724;51.272;6.554;2023-11-21T11:50:30;21.60;;;14.40;;
4700;SDS011;8724;51.272;6.554;2023-11-21T11:53:11;21.63;;;14.97;;
4700;SDS011;8724;51.272;6.554;2023-11-21T11:55:40;19.10;;;14.57;;
4700;SDS011;8724;51.272;6.554;2023-11-21T11:58:09;20.87;;;14.33;;
4700;SDS011;8724;51.272;6.554;2023-11-21T12:00:38;17.47;;;13.13;;
4700;SDS011;8724;51.272;6.554;2023-11-21T12:03:08;19.90;;;12.50;;
4700;SDS011;8724;51.272;6.554;2023-11-21T12:05:37;19.07;;;13.50;;
4700;SDS011;8724;51.272;6.554;2023-11-21T12:08:06;24.53;;;14.20;;
4700;SDS011;8724;51.272;6.554;2023-11-21T12:10:35;17.77;;;12.37;;
4700;SDS011;8724;51.272;6.554;2023-11-21T12:13:06;17.43;;;11.03;;
4700;SDS011;8724;51.272;6.554;2023-11-21T12:15:36;15.43;;;10.43;;
4700;SDS011;8724;51.272;6.554;2023-11-21T12:18:07;16.13;;;11.10;;
4700;SDS011;8724;51.272;6.554;2023-11-21T12:20:36;18.23;;;12.33;;
4700;SDS011;8724;51.272;6.554;2023-11-21T12:23:06;22.10;;;14.10;;
4700;SDS011;8724;51.272;6.554;2023-11-21T12:25:36;19.53;;;13.70;;
4700;SDS011;8724;51.272;6.554;2023-11-21T12:28:08;21.67;;;13.47;;
4700;SDS011;8724;51.272;6.554;2023-11-21T12:30:39;19.20;;;12.67;;
4700;SDS011;8724;51.272;6.554;2023-11-21T12:33:09;19.23;;;14.37;;
4700;SDS011;8724;51.272;6.554;2023-11-21T12:35:40;18.27;;;13.10;;
4700;SDS011;8724;51.272;6.554;2023-11-21T12:38:09;19.30;;;13.70;;
4700;SDS011;8724;51.272;6.554;2023-11-21T12:40:38;20.53;;;14.77;;
4700;SDS011;8724;51.272;6.554;2023-11-21T12:43:06;21.47;;;14.73;;
4700;SDS011;8724;51.272;6.554;2023-11-21T12:45:36;20.10;;;13.63;;
4700;SDS011;8724;51.272;6.554;2023-11-21T12:48:06;27.07;;;17.43;;
4700;SDS011;8724;51.272;6.554;2023-11-21T12:50:36;23.33;;;14.60;;
4700;SDS011;8724;51.272;6.554;2023-11-21T12:53:05;25.83;;;15.60;;
4700;SDS011;8724;51.272;6.554;2023-11-21T12:55:36;25.73;;;16.70;;
4700;SDS011;8724;51.272;6.554;2023-11-21T12:58:06;21.90;;;15.20;;
4700;SDS011;8724;51.272;6.554;2023-11-21T13:00:38;24.03;;;16.17;;
4700;SDS011;8724;51.272;6.554;2023-11-21T13:03:11;24.50;;;15.57;;
4700;SDS011;8724;51.272;6.554;2023-11-21T13:05:44;24.63;;;15.80;;
4700;SDS011;8724;51.272;6.554;2023-11-21T13:08:17;29.60;;;18.60;;
4700;SDS011;8724;51.272;6.554;2023-11-21T13:10:49;31.23;;;19.20;;
4700;SDS011;8724;51.272;6.554;2023-11-21T13:13:18;33.10;;;18.27;;
4700;SDS011;8724;51.272;6.554;2023-11-21T13:15:51;25.53;;;17.10;;
4700;SDS011;8724;51.272;6.554;2023-11-21T13:18:23;32.93;;;18.40;;
4700;SDS011;8724;51.272;6.554;2023-11-21T13:20:53;29.67;;;17.27;;
4700;SDS011;8724;51.272;6.554;2023-11-21T13:23:23;32.90;;;19.47;;
4700;SDS011;8724;51.272;6.554;2023-11-21T13:25:52;31.40;;;18.50;;
4700;SDS011;8724;51.272;6.554;2023-11-21T13:28:30;26.53;;;17.97;;
4700;SDS011;8724;51.272;6.554;2023-11-21T13:31:00;31.33;;;18.40;;
4700;SDS011;8724;51.272;6.554;2023-11-21T13:33:38;30.67;;;17.57;;
4700;SDS011;8724;51.272;6.554;2023-11-21T13:36:08;27.07;;;17.50;;
4700;SDS011;8724;51.272;6.554;2023-11-21T13:38:37;22.13;;;14.87;;
4700;SDS011;8724;51.272;6.554;2023-11-21T13:41:09;25.83;;;17.87;;
4700;SDS011;8724;51.272;6.554;2023-11-21T13:43:40;23.63;;;16.80;;
4700;SDS011;8724;51.272;6.554;2023-11-21T13:46:10;21.27;;;15.93;;
4700;SDS011;8724;51.272;6.554;2023-11-21T13:48:45;23.30;;;16.87;;
4700;SDS011;8724;51.272;6.554;2023-11-21T13:51:21;26.07;;;17.30;;
4700;SDS011;8724;51.272;6.554;2023-11-21T13:53:58;27.43;;;16.90;;
4700;SDS011;8724;51.272;6.554;2023-11-21T13:56:27;28.23;;;18.30;;
4700;SDS011;8724;51.272;6.554;2023-11-21T13:58:56;27.30;;;17.53;;
4700;SDS011;8724;51.272;6.554;2023-11-21T14:01:30;22.67;;;15.53;;
4700;SDS011;8724;51.272;6.554;2023-11-21T14:04:22;23.77;;;16.07;;
4700;SDS011;8724;51.272;6.554;2023-11-21T14:07:05;20.77;;;15.87;;
4700;SDS011;8724;51.272;6.554;2023-11-21T14:09:47;22.97;;;15.20;;
4700;SDS011;8724;51.272;6.554;2023-11-21T14:12:16;21.73;;;15.70;;
4700;SDS011;8724;51.272;6.554;2023-11-21T14:14:45;25.00;;;17.17;;
4700;SDS011;8724;51.272;6.554;2023-11-21T14:17:14;18.27;;;14.17;;
4700;SDS011;8724;51.272;6.554;2023-11-21T14:19:44;19.40;;;14.63;;
4700;SDS011;8724;51.272;6.554;2023-11-21T14:22:14;16.10;;;12.17;;
4700;SDS011;8724;51.272;6.554;2023-11-21T14:24:43;19.87;;;14.60;;
4700;SDS011;8724;51.272;6.554;2023-11-21T14:27:13;18.80;;;13.40;;
4700;SDS011;8724;51.272;6.554;2023-11-21T14:29:42;21.57;;;14.77;;
4700;SDS011;8724;51.272;6.554;2023-11-21T14:32:11;17.70;;;13.90;;
4700;SDS011;8724;51.272;6.554;2023-11-21T14:34:41;20.63;;;14.30;;
4700;SDS011;8724;51.272;6.554;2023-11-21T14:37:13;19.87;;;14.90;;
4700;SDS011;8724;51.272;6.554;2023-11-21T14:39:41;15.93;;;12.00;;
4700;SDS011;8724;51.272;6.554;2023-11-21T14:42:12;15.07;;;12.13;;
4700;SDS011;8724;51.272;6.554;2023-11-21T14:44:42;20.00;;;12.47;;
4700;SDS011;8724;51.272;6.554;2023-11-21T14:47:11;18.37;;;11.77;;
4700;SDS011;8724;51.272;6.554;2023-11-21T14:49:43;11.53;;;9.77;;
4700;SDS011;8724;51.272;6.554;2023-11-21T14:52:21;12.83;;;11.50;;
4700;SDS011;8724;51.272;6.554;2023-11-21T14:54:59;13.33;;;11.37;;
4700;SDS011;8724;51.272;6.554;2023-11-21T14:57:41;12.60;;;10.07;;
4700;SDS011;8724;51.272;6.554;2023-11-21T15:00:16;11.33;;;9.53;;
4700;SDS011;8724;51.272;6.554;2023-11-21T15:03:08;9.30;;;8.30;;
4700;SDS011;8724;51.272;6.554;2023-11-21T15:05:41;9.97;;;8.87;;
4700;SDS011;8724;51.272;6.554;2023-11-21T15:08:10;10.83;;;9.73;;
4700;SDS011;8724;51.272;6.554;2023-11-21T15:10:48;11.20;;;9.60;;